sensor_id;sensor_type;location;lat;lon;timestamp;P1;durP1;ratioP1;P2;durP2;ratioP2
19971;SDS011;10147;16.402;102.848;2023-11-18T00:02:12;28.48;;;17.27;;
19971;SDS011;10147;16.402;102.848;2023-11-18T00:04:43;22.77;;;15.82;;
19971;SDS011;10147;16.402;102.848;2023-11-18T00:07:13;24.92;;;15.85;;
19971;SDS011;10147;16.402;102.848;2023-11-18T00:09:43;54.33;;;49.47;;
19971;SDS011;10147;16.402;102.848;2023-11-18T00:12:14;24.80;;;17.02;;
19971;SDS011;10147;16.402;102.848;2023-11-18T00:14:45;22.60;;;17.30;;
19971;SDS011;10147;16.402;102.848;2023-11-18T00:17:16;33.53;;;19.73;;
19971;SDS011;10147;16.402;102.848;2023-11-18T00:19:47;24.23;;;17.10;;
19971;SDS011;10147;16.402;102.848;2023-11-18T00:22:17;31.38;;;19.35;;
19971;SDS011;10147;16.402;102.848;2023-11-18T00:24:47;24.17;;;17.30;;
19971;SDS011;10147;16.402;102.848;2023-11-18T00:27:17;29.50;;;16.70;;
19971;SDS011;10147;16.402;102.848;2023-11-18T00:29:48;29.10;;;16.77;;
19971;SDS011;10147;16.402;102.848;2023-11-18T00:32:18;24.85;;;17.85;;
19971;SDS011;10147;16.402;102.848;2023-11-18T00:34:48;76.28;;;58.53;;
19971;SDS011;10147;16.402;102.848;2023-11-18T00:37:19;28.65;;;17.85;;
19971;SDS011;10147;16.402;102.848;2023-11-18T00:39:49;38.17;;;20.48;;
19971;SDS011;10147;16.402;102.848;2023-11-18T00:42:20;29.05;;;18.23;;
19971;SDS011;10147;16.402;102.848;2023-11-18T00:44:50;28.02;;;16.77;;
19971;SDS011;10147;16.402;102.848;2023-11-18T00:47:21;30.77;;;16.80;;
19971;SDS011;10147;16.402;102.848;2023-11-18T00:49:52;29.50;;;15.77;;
19971;SDS011;10147;16.402;102.848;2023-11-18T00:52:23;25.00;;;16.05;;
19971;SDS011;10147;16.402;102.848;2023-11-18T00:54:53;25.02;;;15.38;;
19971;SDS011;10147;16.402;102.848;2023-11-18T00:57:23;22.40;;;13.85;;
19971;SDS011;10147;16.402;102.848;2023-11-18T00:59:53;24.73;;;16.42;;
19971;SDS011;10147;16.402;102.848;2023-11-18T01:02:23;26.48;;;18.35;;
19971;SDS011;10147;16.402;102.848;2023-11-18T01:04:56;23.55;;;15.65;;
19971;SDS011;10147;16.402;102.848;2023-11-18T01:07:26;27.40;;;14.40;;
19971;SDS011;10147;16.402;102.848;2023-11-18T01:09:56;22.45;;;15.02;;
19971;SDS011;10147;16.402;102.848;2023-11-18T01:12:26;23.08;;;14.88;;
19971;SDS011;10147;16.402;102.848;2023-11-18T01:14:56;28.50;;;25.52;;
19971;SDS011;10147;16.402;102.848;2023-11-18T01:17:26;30.38;;;26.02;;
19971;SDS011;10147;16.402;102.848;2023-11-18T01:19:57;27.35;;;22.77;;
19971;SDS011;10147;16.402;102.848;2023-11-18T01:22:27;25.65;;;13.90;;
19971;SDS011;10147;16.402;102.848;2023-11-18T01:24:58;19.95;;;13.07;;
19971;SDS011;10147;16.402;102.848;2023-11-18T01:27:28;25.65;;;13.98;;
19971;SDS011;10147;16.402;102.848;2023-11-18T01:29:58;19.73;;;13.73;;
19971;SDS011;10147;16.402;102.848;2023-11-18T01:32:28;26.95;;;13.43;;
19971;SDS011;10147;16.402;102.848;2023-11-18T01:34:59;24.50;;;14.02;;
19971;SDS011;10147;16.402;102.848;2023-11-18T01:37:29;51.35;;;45.83;;
19971;SDS011;10147;16.402;102.848;2023-11-18T01:40:01;34.85;;;28.63;;
19971;SDS011;10147;16.402;102.848;2023-11-18T01:42:35;26.85;;;20.88;;
19971;SDS011;10147;16.402;102.848;2023-11-18T01:45:05;30.38;;;15.70;;
19971;SDS011;10147;16.402;102.848;2023-11-18T01:47:40;33.15;;;19.05;;
19971;SDS011;10147;16.402;102.848;2023-11-18T01:50:12;23.08;;;14.38;;
19971;SDS011;10147;16.402;102.848;2023-11-18T01:52:43;23.75;;;14.35;;
19971;SDS011;10147;16.402;102.848;2023-11-18T01:55:14;23.75;;;14.45;;
19971;SDS011;10147;16.402;102.848;2023-11-18T01:57:45;23.55;;;14.05;;
19971;SDS011;10147;16.402;102.848;2023-11-18T02:00:15;29.95;;;13.82;;
19971;SDS011;10147;16.402;102.848;2023-11-18T02:02:46;23.83;;;15.15;;
19971;SDS011;10147;16.402;102.848;2023-11-18T02:05:16;35.45;;;31.70;;
19971;SDS011;10147;16.402;102.848;2023-11-18T02:07:46;31.58;;;17.50;;
19971;SDS011;10147;16.402;102.848;2023-11-18T02:10:16;22.13;;;13.98;;
19971;SDS011;10147;16.402;102.848;2023-11-18T02:13:06;19.95;;;13.20;;
19971;SDS011;10147;16.402;102.848;2023-11-18T02:15:47;19.70;;;13.75;;
19971;SDS011;10147;16.402;102.848;2023-11-18T02:18:18;24.90;;;14.23;;
19971;SDS011;10147;16.402;102.848;2023-11-18T02:20:49;22.33;;;14.20;;
19971;SDS011;10147;16.402;102.848;2023-11-18T02:23:20;22.42;;;13.38;;
19971;SDS011;10147;16.402;102.848;2023-11-18T02:25:50;24.77;;;21.45;;
19971;SDS011;10147;16.402;102.848;2023-11-18T02:28:21;22.92;;;14.05;;
19971;SDS011;10147;16.402;102.848;2023-11-18T02:30:54;29.38;;;15.05;;
19971;SDS011;10147;16.402;102.848;2023-11-18T02:33:33;23.20;;;13.50;;
19971;SDS011;10147;16.402;102.848;2023-11-18T02:36:20;22.75;;;12.98;;
19971;SDS011;10147;16.402;102.848;2023-11-18T02:39:06;23.25;;;14.05;;
19971;SDS011;10147;16.402;102.848;2023-11-18T02:41:47;25.33;;;13.30;;
19971;SDS011;10147;16.402;102.848;2023-11-18T02:44:21;27.88;;;14.02;;
19971;SDS011;10147;16.402;102.848;2023-11-18T02:46:54;26.45;;;15.55;;
19971;SDS011;10147;16.402;102.848;2023-11-18T02:49:24;32.13;;;14.32;;
19971;SDS011;10147;16.402;102.848;2023-11-18T02:51:54;22.30;;;14.27;;
19971;SDS011;10147;16.402;102.848;2023-11-18T02:54:24;25.88;;;14.75;;
19971;SDS011;10147;16.402;102.848;2023-11-18T02:56:55;23.42;;;15.38;;
19971;SDS011;10147;16.402;102.848;2023-11-18T02:59:25;48.58;;;37.17;;
19971;SDS011;10147;16.402;102.848;2023-11-18T03:01:59;22.17;;;13.52;;
19971;SDS011;10147;16.402;102.848;2023-11-18T03:04:30;25.13;;;14.63;;
19971;SDS011;10147;16.402;102.848;2023-11-18T03:07:00;20.50;;;13.93;;
19971;SDS011;10147;16.402;102.848;2023-11-18T03:09:32;35.35;;;14.20;;
19971;SDS011;10147;16.402;102.848;2023-11-18T03:12:05;21.77;;;13.25;;
19971;SDS011;10147;16.402;102.848;2023-11-18T03:14:36;24.27;;;14.48;;
19971;SDS011;10147;16.402;102.848;2023-11-18T03:17:07;23.02;;;15.68;;
19971;SDS011;10147;16.402;102.848;2023-11-18T03:19:38;25.00;;;15.20;;
19971;SDS011;10147;16.402;102.848;2023-11-18T03:22:10;25.13;;;13.60;;
19971;SDS011;10147;16.402;102.848;2023-11-18T03:24:42;35.40;;;13.65;;
19971;SDS011;10147;16.402;102.848;2023-11-18T03:27:12;23.10;;;14.23;;
19971;SDS011;10147;16.402;102.848;2023-11-18T03:29:42;23.67;;;13.05;;
19971;SDS011;10147;16.402;102.848;2023-11-18T03:32:17;22.33;;;12.90;;
19971;SDS011;10147;16.402;102.848;2023-11-18T03:34:47;22.60;;;12.85;;
19971;SDS011;10147;16.402;102.848;2023-11-18T03:37:17;29.17;;;26.48;;
19971;SDS011;10147;16.402;102.848;2023-11-18T03:39:47;48.92;;;28.80;;
19971;SDS011;10147;16.402;102.848;2023-11-18T03:42:18;34.72;;;19.98;;
19971;SDS011;10147;16.402;102.848;2023-11-18T03:44:49;39.13;;;21.30;;
19971;SDS011;10147;16.402;102.848;2023-11-18T03:47:19;25.25;;;13.07;;
19971;SDS011;10147;16.402;102.848;2023-11-18T03:49:52;20.45;;;13.02;;
19971;SDS011;10147;16.402;102.848;2023-11-18T03:52:23;29.02;;;13.57;;
19971;SDS011;10147;16.402;102.848;2023-11-18T03:54:54;24.38;;;13.15;;
19971;SDS011;10147;16.402;102.848;2023-11-18T03:57:24;34.00;;;20.73;;
19971;SDS011;10147;16.402;102.848;2023-11-18T03:59:54;26.30;;;14.43;;
19971;SDS011;10147;16.402;102.848;2023-11-18T04:02:24;31.33;;;15.90;;
19971;SDS011;10147;16.402;102.848;2023-11-18T04:04:55;19.60;;;13.07;;
19971;SDS011;10147;16.402;102.848;2023-11-18T04:07:24;25.10;;;14.15;;
19971;SDS011;10147;16.402;102.848;2023-11-18T04:09:55;33.63;;;15.68;;
19971;SDS011;10147;16.402;102.848;2023-11-18T04:12:26;39.70;;;13.95;;
19971;SDS011;10147;16.402;102.848;2023-11-18T04:14:55;20.92;;;12.82;;
19971;SDS011;10147;16.402;102.848;2023-11-18T04:17:25;20.17;;;12.20;;
19971;SDS011;10147;16.402;102.848;2023-11-18T04:19:57;20.17;;;11.98;;
19971;SDS011;10147;16.402;102.848;2023-11-18T04:22:27;19.58;;;12.23;;
19971;SDS011;10147;16.402;102.848;2023-11-18T04:24:57;28.80;;;12.88;;
19971;SDS011;10147;16.402;102.848;2023-11-18T04:27:27;23.85;;;12.02;;
19971;SDS011;10147;16.402;102.848;2023-11-18T04:29:57;42.63;;;13.10;;
19971;SDS011;10147;16.402;102.848;2023-11-18T04:32:29;26.55;;;12.43;;
19971;SDS011;10147;16.402;102.848;2023-11-18T04:35:03;25.65;;;12.55;;
19971;SDS011;10147;16.402;102.848;2023-11-18T04:37:38;31.98;;;13.57;;
19971;SDS011;10147;16.402;102.848;2023-11-18T04:40:11;31.67;;;14.77;;
19971;SDS011;10147;16.402;102.848;2023-11-18T04:42:42;28.73;;;13.77;;
19971;SDS011;10147;16.402;102.848;2023-11-18T04:45:12;39.67;;;13.38;;
19971;SDS011;10147;16.402;102.848;2023-11-18T04:47:42;20.45;;;13.43;;
19971;SDS011;10147;16.402;102.848;2023-11-18T04:50:14;20.50;;;12.35;;
19971;SDS011;10147;16.402;102.848;2023-11-18T04:52:44;20.90;;;12.43;;
19971;SDS011;10147;16.402;102.848;2023-11-18T04:55:14;31.58;;;15.55;;
19971;SDS011;10147;16.402;102.848;2023-11-18T04:57:44;16.40;;;11.95;;
19971;SDS011;10147;16.402;102.848;2023-11-18T05:00:14;40.75;;;15.27;;
19971;SDS011;10147;16.402;102.848;2023-11-18T05:02:47;20.85;;;11.30;;
19971;SDS011;10147;16.402;102.848;2023-11-18T05:05:17;26.40;;;12.50;;
19971;SDS011;10147;16.402;102.848;2023-11-18T05:07:47;20.83;;;12.98;;
19971;SDS011;10147;16.402;102.848;2023-11-18T05:10:20;23.60;;;12.45;;
19971;SDS011;10147;16.402;102.848;2023-11-18T05:12:49;30.75;;;12.80;;
19971;SDS011;10147;16.402;102.848;2023-11-18T05:15:24;26.85;;;12.45;;
19971;SDS011;10147;16.402;102.848;2023-11-18T05:17:54;24.65;;;12.45;;
19971;SDS011;10147;16.402;102.848;2023-11-18T05:20:25;23.25;;;12.68;;
19971;SDS011;10147;16.402;102.848;2023-11-18T05:22:56;24.83;;;12.65;;
19971;SDS011;10147;16.402;102.848;2023-11-18T05:25:26;21.27;;;11.82;;
19971;SDS011;10147;16.402;102.848;2023-11-18T05:27:56;20.52;;;11.65;;
19971;SDS011;10147;16.402;102.848;2023-11-18T05:30:26;24.15;;;11.63;;
19971;SDS011;10147;16.402;102.848;2023-11-18T05:32:56;32.88;;;12.85;;
19971;SDS011;10147;16.402;102.848;2023-11-18T05:35:29;22.15;;;12.05;;
19971;SDS011;10147;16.402;102.848;2023-11-18T05:38:00;20.38;;;11.93;;
19971;SDS011;10147;16.402;102.848;2023-11-18T05:40:35;23.70;;;12.27;;
19971;SDS011;10147;16.402;102.848;2023-11-18T05:43:08;32.95;;;12.85;;
19971;SDS011;10147;16.402;102.848;2023-11-18T05:45:44;28.65;;;12.27;;
19971;SDS011;10147;16.402;102.848;2023-11-18T05:48:34;21.38;;;11.98;;
19971;SDS011;10147;16.402;102.848;2023-11-18T05:51:10;25.92;;;13.25;;
19971;SDS011;10147;16.402;102.848;2023-11-18T05:53:41;19.13;;;11.30;;
19971;SDS011;10147;16.402;102.848;2023-11-18T05:56:16;24.95;;;11.20;;
19971;SDS011;10147;16.402;102.848;2023-11-18T05:58:46;27.45;;;12.45;;
19971;SDS011;10147;16.402;102.848;2023-11-18T06:01:16;25.15;;;12.70;;
19971;SDS011;10147;16.402;102.848;2023-11-18T06:03:47;25.45;;;12.05;;
19971;SDS011;10147;16.402;102.848;2023-11-18T06:06:18;18.63;;;11.85;;
19971;SDS011;10147;16.402;102.848;2023-11-18T06:08:51;22.08;;;12.30;;
19971;SDS011;10147;16.402;102.848;2023-11-18T06:11:22;22.10;;;11.55;;
19971;SDS011;10147;16.402;102.848;2023-11-18T06:13:51;27.70;;;12.73;;
19971;SDS011;10147;16.402;102.848;2023-11-18T06:16:22;24.17;;;12.23;;
19971;SDS011;10147;16.402;102.848;2023-11-18T06:18:54;38.03;;;13.77;;
19971;SDS011;10147;16.402;102.848;2023-11-18T06:21:26;24.67;;;12.23;;
19971;SDS011;10147;16.402;102.848;2023-11-18T06:24:00;24.92;;;11.15;;
19971;SDS011;10147;16.402;102.848;2023-11-18T06:26:34;31.95;;;20.67;;
19971;SDS011;10147;16.402;102.848;2023-11-18T06:29:07;18.63;;;11.23;;
19971;SDS011;10147;16.402;102.848;2023-11-18T06:31:41;24.90;;;11.52;;
19971;SDS011;10147;16.402;102.848;2023-11-18T06:34:14;25.85;;;12.88;;
19971;SDS011;10147;16.402;102.848;2023-11-18T06:36:44;19.40;;;12.75;;
19971;SDS011;10147;16.402;102.848;2023-11-18T06:39:14;27.33;;;12.93;;
19971;SDS011;10147;16.402;102.848;2023-11-18T06:41:45;22.90;;;11.82;;
19971;SDS011;10147;16.402;102.848;2023-11-18T06:44:19;21.77;;;11.80;;
19971;SDS011;10147;16.402;102.848;2023-11-18T06:46:53;29.08;;;14.80;;
19971;SDS011;10147;16.402;102.848;2023-11-18T06:49:25;17.48;;;11.85;;
19971;SDS011;10147;16.402;102.848;2023-11-18T06:51:58;27.98;;;12.68;;
19971;SDS011;10147;16.402;102.848;2023-11-18T06:54:31;21.23;;;12.48;;
19971;SDS011;10147;16.402;102.848;2023-11-18T06:57:01;20.33;;;12.05;;
19971;SDS011;10147;16.402;102.848;2023-11-18T06:59:32;22.38;;;12.40;;
19971;SDS011;10147;16.402;102.848;2023-11-18T07:02:03;31.17;;;12.95;;
19971;SDS011;10147;16.402;102.848;2023-11-18T07:04:35;17.30;;;12.73;;
19971;SDS011;10147;16.402;102.848;2023-11-18T07:07:07;20.30;;;12.18;;
19971;SDS011;10147;16.402;102.848;2023-11-18T07:09:37;24.95;;;12.55;;
19971;SDS011;10147;16.402;102.848;2023-11-18T07:12:08;21.13;;;12.02;;
19971;SDS011;10147;16.402;102.848;2023-11-18T07:14:38;18.13;;;11.02;;
19971;SDS011;10147;16.402;102.848;2023-11-18T07:17:09;19.00;;;11.23;;
19971;SDS011;10147;16.402;102.848;2023-11-18T07:19:39;35.55;;;12.50;;
19971;SDS011;10147;16.402;102.848;2023-11-18T07:22:09;21.88;;;11.55;;
19971;SDS011;10147;16.402;102.848;2023-11-18T07:24:40;24.50;;;12.02;;
19971;SDS011;10147;16.402;102.848;2023-11-18T07:27:15;18.95;;;12.02;;
19971;SDS011;10147;16.402;102.848;2023-11-18T07:29:45;24.52;;;11.90;;
19971;SDS011;10147;16.402;102.848;2023-11-18T07:32:16;19.83;;;11.35;;
19971;SDS011;10147;16.402;102.848;2023-11-18T07:34:48;30.60;;;12.05;;
19971;SDS011;10147;16.402;102.848;2023-11-18T07:37:19;19.35;;;12.65;;
19971;SDS011;10147;16.402;102.848;2023-11-18T07:39:49;20.77;;;11.52;;
19971;SDS011;10147;16.402;102.848;2023-11-18T07:42:19;23.83;;;11.73;;
19971;SDS011;10147;16.402;102.848;2023-11-18T07:44:50;17.67;;;10.73;;
19971;SDS011;10147;16.402;102.848;2023-11-18T07:47:20;35.50;;;12.00;;
19971;SDS011;10147;16.402;102.848;2023-11-18T07:49:50;20.70;;;12.85;;
19971;SDS011;10147;16.402;102.848;2023-11-18T07:52:20;33.30;;;14.02;;
19971;SDS011;10147;16.402;102.848;2023-11-18T07:54:50;21.65;;;11.95;;
19971;SDS011;10147;16.402;102.848;2023-11-18T07:57:20;19.48;;;11.80;;
19971;SDS011;10147;16.402;102.848;2023-11-18T07:59:53;23.63;;;11.40;;
19971;SDS011;10147;16.402;102.848;2023-11-18T08:02:26;16.88;;;12.05;;
19971;SDS011;10147;16.402;102.848;2023-11-18T08:04:56;35.55;;;28.65;;
19971;SDS011;10147;16.402;102.848;2023-11-18T08:07:27;26.23;;;13.00;;
19971;SDS011;10147;16.402;102.848;2023-11-18T08:09:57;20.17;;;11.75;;
19971;SDS011;10147;16.402;102.848;2023-11-18T08:12:33;21.88;;;11.70;;
19971;SDS011;10147;16.402;102.848;2023-11-18T08:15:03;22.08;;;12.63;;
19971;SDS011;10147;16.402;102.848;2023-11-18T08:17:38;15.90;;;12.02;;
19971;SDS011;10147;16.402;102.848;2023-11-18T08:20:08;18.73;;;12.00;;
19971;SDS011;10147;16.402;102.848;2023-11-18T08:22:44;27.95;;;11.98;;
19971;SDS011;10147;16.402;102.848;2023-11-18T08:25:14;20.77;;;11.63;;
19971;SDS011;10147;16.402;102.848;2023-11-18T08:27:46;18.15;;;12.82;;
19971;SDS011;10147;16.402;102.848;2023-11-18T08:30:17;26.15;;;14.45;;
19971;SDS011;10147;16.402;102.848;2023-11-18T08:32:51;30.65;;;16.20;;
19971;SDS011;10147;16.402;102.848;2023-11-18T08:35:21;35.53;;;12.88;;
19971;SDS011;10147;16.402;102.848;2023-11-18T08:37:52;24.95;;;12.20;;
19971;SDS011;10147;16.402;102.848;2023-11-18T08:40:22;22.10;;;12.27;;
19971;SDS011;10147;16.402;102.848;2023-11-18T08:42:54;35.97;;;12.77;;
19971;SDS011;10147;16.402;102.848;2023-11-18T08:45:26;22.85;;;13.25;;
19971;SDS011;10147;16.402;102.848;2023-11-18T08:48:00;23.98;;;12.45;;
19971;SDS011;10147;16.402;102.848;2023-11-18T08:50:39;21.10;;;11.77;;
19971;SDS011;10147;16.402;102.848;2023-11-18T08:53:09;18.08;;;12.85;;
19971;SDS011;10147;16.402;102.848;2023-11-18T08:55:40;18.15;;;13.05;;
19971;SDS011;10147;16.402;102.848;2023-11-18T08:58:19;23.67;;;13.13;;
19971;SDS011;10147;16.402;102.848;2023-11-18T09:01:09;24.10;;;12.98;;
19971;SDS011;10147;16.402;102.848;2023-11-18T09:03:43;25.70;;;14.38;;
19971;SDS011;10147;16.402;102.848;2023-11-18T09:06:17;24.08;;;12.85;;
19971;SDS011;10147;16.402;102.848;2023-11-18T09:08:54;22.02;;;14.18;;
19971;SDS011;10147;16.402;102.848;2023-11-18T09:11:26;19.75;;;12.85;;
19971;SDS011;10147;16.402;102.848;2023-11-18T09:14:01;19.23;;;13.02;;
19971;SDS011;10147;16.402;102.848;2023-11-18T09:16:32;30.33;;;13.40;;
19971;SDS011;10147;16.402;102.848;2023-11-18T09:19:08;27.08;;;15.57;;
19971;SDS011;10147;16.402;102.848;2023-11-18T09:21:39;20.17;;;13.68;;
19971;SDS011;10147;16.402;102.848;2023-11-18T09:24:11;23.15;;;13.00;;
19971;SDS011;10147;16.402;102.848;2023-11-18T09:26:42;20.83;;;12.73;;
19971;SDS011;10147;16.402;102.848;2023-11-18T09:29:23;20.85;;;12.85;;
19971;SDS011;10147;16.402;102.848;2023-11-18T09:31:53;22.65;;;13.73;;
19971;SDS011;10147;16.402;102.848;2023-11-18T09:34:24;21.45;;;13.30;;
19971;SDS011;10147;16.402;102.848;2023-11-18T09:37:01;26.30;;;13.45;;
19971;SDS011;10147;16.402;102.848;2023-11-18T09:39:33;25.98;;;13.68;;
19971;SDS011;10147;16.402;102.848;2023-11-18T09:42:06;29.80;;;14.25;;
19971;SDS011;10147;16.402;102.848;2023-11-18T09:44:37;27.60;;;20.95;;
19971;SDS011;10147;16.402;102.848;2023-11-18T09:47:08;23.20;;;14.43;;
19971;SDS011;10147;16.402;102.848;2023-11-18T09:49:43;25.70;;;15.80;;
19971;SDS011;10147;16.402;102.848;2023-11-18T09:52:16;22.20;;;14.40;;
19971;SDS011;10147;16.402;102.848;2023-11-18T09:54:50;22.85;;;18.48;;
19971;SDS011;10147;16.402;102.848;2023-11-18T09:57:33;25.10;;;18.25;;
19971;SDS011;10147;16.402;102.848;2023-11-18T10:00:14;29.70;;;18.95;;
19971;SDS011;10147;16.402;102.848;2023-11-18T10:03:05;23.30;;;17.17;;
19971;SDS011;10147;16.402;102.848;2023-11-18T10:05:37;38.90;;;25.27;;
19971;SDS011;10147;16.402;102.848;2023-11-18T10:08:09;25.95;;;15.00;;
19971;SDS011;10147;16.402;102.848;2023-11-18T10:10:39;26.42;;;14.88;;
19971;SDS011;10147;16.402;102.848;2023-11-18T10:13:14;41.92;;;15.45;;
19971;SDS011;10147;16.402;102.848;2023-11-18T10:15:51;22.42;;;14.90;;
19971;SDS011;10147;16.402;102.848;2023-11-18T10:18:26;27.65;;;15.85;;
19971;SDS011;10147;16.402;102.848;2023-11-18T10:20:57;33.22;;;15.70;;
19971;SDS011;10147;16.402;102.848;2023-11-18T10:23:29;22.75;;;16.67;;
19971;SDS011;10147;16.402;102.848;2023-11-18T10:26:02;38.75;;;18.00;;
19971;SDS011;10147;16.402;102.848;2023-11-18T10:28:34;32.53;;;18.27;;
19971;SDS011;10147;16.402;102.848;2023-11-18T10:31:06;28.33;;;17.95;;
19971;SDS011;10147;16.402;102.848;2023-11-18T10:33:39;27.85;;;17.58;;
19971;SDS011;10147;16.402;102.848;2023-11-18T10:36:19;28.45;;;17.30;;
19971;SDS011;10147;16.402;102.848;2023-11-18T10:38:54;23.73;;;16.23;;
19971;SDS011;10147;16.402;102.848;2023-11-18T10:41:24;29.98;;;17.15;;
19971;SDS011;10147;16.402;102.848;2023-11-18T10:46:50;57.35;;;19.48;;
19971;SDS011;10147;16.402;102.848;2023-11-18T10:49:28;35.15;;;18.35;;
19971;SDS011;10147;16.402;102.848;2023-11-18T10:52:05;38.80;;;20.25;;
19971;SDS011;10147;16.402;102.848;2023-11-18T10:54:37;54.25;;;24.48;;
19971;SDS011;10147;16.402;102.848;2023-11-18T10:57:18;33.45;;;20.25;;
19971;SDS011;10147;16.402;102.848;2023-11-18T11:02:43;36.75;;;23.58;;
19971;SDS011;10147;16.402;102.848;2023-11-18T11:05:16;35.25;;;22.60;;
19971;SDS011;10147;16.402;102.848;2023-11-18T11:08:01;51.00;;;23.92;;
19971;SDS011;10147;16.402;102.848;2023-11-18T11:10:34;36.67;;;22.35;;
19971;SDS011;10147;16.402;102.848;2023-11-18T11:13:04;47.25;;;25.60;;
19971;SDS011;10147;16.402;102.848;2023-11-18T11:15:40;52.95;;;34.78;;
19971;SDS011;10147;16.402;102.848;2023-11-18T11:18:24;52.38;;;29.55;;
19971;SDS011;10147;16.402;102.848;2023-11-18T11:21:06;66.72;;;40.40;;
19971;SDS011;10147;16.402;102.848;2023-11-18T11:32:57;46.95;;;27.98;;
19971;SDS011;10147;16.402;102.848;2023-11-18T11:35:47;56.10;;;35.60;;
19971;SDS011;10147;16.402;102.848;2023-11-18T11:38:26;79.32;;;54.38;;
19971;SDS011;10147;16.402;102.848;2023-11-18T11:40:57;83.60;;;57.65;;
19971;SDS011;10147;16.402;102.848;2023-11-18T11:43:34;60.53;;;38.70;;
19971;SDS011;10147;16.402;102.848;2023-11-18T11:46:05;55.28;;;35.67;;
19971;SDS011;10147;16.402;102.848;2023-11-18T11:48:39;56.35;;;35.42;;
19971;SDS011;10147;16.402;102.848;2023-11-18T11:51:16;52.88;;;34.60;;
19971;SDS011;10147;16.402;102.848;2023-11-18T11:54:06;50.45;;;30.67;;
19971;SDS011;10147;16.402;102.848;2023-11-18T11:56:44;53.45;;;31.25;;
19971;SDS011;10147;16.402;102.848;2023-11-18T11:59:34;53.75;;;31.25;;
19971;SDS011;10147;16.402;102.848;2023-11-18T12:02:06;43.75;;;27.95;;
19971;SDS011;10147;16.402;102.848;2023-11-18T12:04:38;64.85;;;49.13;;
19971;SDS011;10147;16.402;102.848;2023-11-18T12:07:10;75.22;;;52.97;;
19971;SDS011;10147;16.402;102.848;2023-11-18T12:09:47;43.53;;;27.73;;
19971;SDS011;10147;16.402;102.848;2023-11-18T12:12:22;42.45;;;26.75;;
19971;SDS011;10147;16.402;102.848;2023-11-18T12:14:57;39.95;;;27.35;;
19971;SDS011;10147;16.402;102.848;2023-11-18T12:20:50;41.00;;;27.15;;
19971;SDS011;10147;16.402;102.848;2023-11-18T12:23:25;45.35;;;27.08;;
19971;SDS011;10147;16.402;102.848;2023-11-18T12:25:56;48.88;;;26.48;;
19971;SDS011;10147;16.402;102.848;2023-11-18T12:28:27;40.92;;;25.25;;
19971;SDS011;10147;16.402;102.848;2023-11-18T12:31:06;38.78;;;25.00;;
19971;SDS011;10147;16.402;102.848;2023-11-18T12:40:02;42.13;;;25.45;;
19971;SDS011;10147;16.402;102.848;2023-11-18T12:42:58;37.17;;;25.67;;
19971;SDS011;10147;16.402;102.848;2023-11-18T12:48:48;50.35;;;30.63;;
19971;SDS011;10147;16.402;102.848;2023-11-18T12:51:24;41.35;;;26.52;;
19971;SDS011;10147;16.402;102.848;2023-11-18T12:53:55;36.45;;;24.17;;
19971;SDS011;10147;16.402;102.848;2023-11-18T12:56:26;36.85;;;24.38;;
19971;SDS011;10147;16.402;102.848;2023-11-18T12:59:00;37.40;;;24.00;;
19971;SDS011;10147;16.402;102.848;2023-11-18T13:01:35;42.58;;;24.52;;
19971;SDS011;10147;16.402;102.848;2023-11-18T13:04:06;41.40;;;24.52;;
19971;SDS011;10147;16.402;102.848;2023-11-18T13:06:36;37.33;;;24.50;;
19971;SDS011;10147;16.402;102.848;2023-11-18T13:09:06;44.15;;;24.52;;
19971;SDS011;10147;16.402;102.848;2023-11-18T13:11:39;37.50;;;24.33;;
19971;SDS011;10147;16.402;102.848;2023-11-18T13:14:12;36.88;;;23.40;;
19971;SDS011;10147;16.402;102.848;2023-11-18T13:16:43;33.45;;;22.98;;
19971;SDS011;10147;16.402;102.848;2023-11-18T13:19:22;38.10;;;23.75;;
19971;SDS011;10147;16.402;102.848;2023-11-18T13:21:58;42.08;;;29.05;;
19971;SDS011;10147;16.402;102.848;2023-11-18T13:24:37;62.55;;;40.25;;
19971;SDS011;10147;16.402;102.848;2023-11-18T13:27:09;218.18;;;172.98;;
19971;SDS011;10147;16.402;102.848;2023-11-18T13:29:49;75.53;;;53.88;;
19971;SDS011;10147;16.402;102.848;2023-11-18T13:32:21;42.15;;;30.55;;
19971;SDS011;10147;16.402;102.848;2023-11-18T13:34:52;41.08;;;25.95;;
19971;SDS011;10147;16.402;102.848;2023-11-18T13:37:24;42.22;;;25.65;;
19971;SDS011;10147;16.402;102.848;2023-11-18T13:39:55;39.90;;;25.40;;
19971;SDS011;10147;16.402;102.848;2023-11-18T13:42:27;38.35;;;27.58;;
19971;SDS011;10147;16.402;102.848;2023-11-18T13:45:19;41.72;;;30.10;;
19971;SDS011;10147;16.402;102.848;2023-11-18T13:48:04;37.80;;;27.63;;
19971;SDS011;10147;16.402;102.848;2023-11-18T13:50:37;47.60;;;28.88;;
19971;SDS011;10147;16.402;102.848;2023-11-18T13:53:10;47.67;;;28.50;;
19971;SDS011;10147;16.402;102.848;2023-11-18T13:55:41;48.63;;;36.58;;
19971;SDS011;10147;16.402;102.848;2023-11-18T13:58:14;42.63;;;27.33;;
19971;SDS011;10147;16.402;102.848;2023-11-18T14:00:45;41.90;;;28.58;;
19971;SDS011;10147;16.402;102.848;2023-11-18T14:03:18;44.38;;;30.48;;
19971;SDS011;10147;16.402;102.848;2023-11-18T14:05:53;46.70;;;30.70;;
19971;SDS011;10147;16.402;102.848;2023-11-18T14:08:32;50.08;;;32.40;;
19971;SDS011;10147;16.402;102.848;2023-11-18T14:11:06;44.70;;;31.33;;
19971;SDS011;10147;16.402;102.848;2023-11-18T14:13:44;55.17;;;33.47;;
19971;SDS011;10147;16.402;102.848;2023-11-18T14:16:15;58.10;;;33.17;;
19971;SDS011;10147;16.402;102.848;2023-11-18T14:18:49;100.88;;;73.25;;
19971;SDS011;10147;16.402;102.848;2023-11-18T14:21:20;74.60;;;49.20;;
19971;SDS011;10147;16.402;102.848;2023-11-18T14:23:50;53.45;;;34.72;;
19971;SDS011;10147;16.402;102.848;2023-11-18T14:26:21;64.28;;;41.67;;
19971;SDS011;10147;16.402;102.848;2023-11-18T14:28:52;58.03;;;36.50;;
19971;SDS011;10147;16.402;102.848;2023-11-18T14:31:22;64.10;;;38.55;;
19971;SDS011;10147;16.402;102.848;2023-11-18T14:33:54;68.35;;;39.92;;
19971;SDS011;10147;16.402;102.848;2023-11-18T14:36:30;72.30;;;41.20;;
19971;SDS011;10147;16.402;102.848;2023-11-18T14:39:01;62.45;;;39.40;;
19971;SDS011;10147;16.402;102.848;2023-11-18T14:41:32;61.67;;;39.08;;
19971;SDS011;10147;16.402;102.848;2023-11-18T14:44:03;67.80;;;41.58;;
19971;SDS011;10147;16.402;102.848;2023-11-18T14:46:34;66.78;;;42.28;;
19971;SDS011;10147;16.402;102.848;2023-11-18T14:49:08;62.22;;;40.75;;
19971;SDS011;10147;16.402;102.848;2023-11-18T14:51:39;86.68;;;56.95;;
19971;SDS011;10147;16.402;102.848;2023-11-18T14:54:13;60.88;;;40.03;;
19971;SDS011;10147;16.402;102.848;2023-11-18T14:56:44;60.85;;;38.00;;